sensor_id;sensor_type;location;lat;lon;timestamp;pressure;altitude;pressure_sealevel;temperature;humidity
53858;BME280;39763;51.188;6.690;2022-11-20T00:01:24;100891.28;;;7.37;62.11
53858;BME280;39763;51.188;6.690;2022-11-20T00:02:56;100897.25;;;7.42;62.02
53858;BME280;39763;51.188;6.690;2022-11-20T00:04:28;100895.44;;;7.48;61.81
53858;BME280;39763;51.188;6.690;2022-11-20T00:06:00;100883.16;;;7.53;61.63
53858;BME280;39763;51.188;6.690;2022-11-20T00:07:32;100886.63;;;7.55;61.27
53858;BME280;39763;51.188;6.690;2022-11-20T00:09:04;100889.16;;;7.58;61.54
53858;BME280;39763;51.188;6.690;2022-11-20T00:10:36;100883.91;;;7.58;61.24
53858;BME280;39763;51.188;6.690;2022-11-20T00:12:08;100881.25;;;7.61;61.13
53858;BME280;39763;51.188;6.690;2022-11-20T00:13:40;100889.06;;;7.62;61.28
53858;BME280;39763;51.188;6.690;2022-11-20T00:15:13;100885.59;;;7.62;60.95
53858;BME280;39763;51.188;6.690;2022-11-20T00:16:45;100892.56;;;7.61;61.15
53858;BME280;39763;51.188;6.690;2022-11-20T00:18:16;100894.38;;;7.58;60.97
53858;BME280;39763;51.188;6.690;2022-11-20T00:19:48;100883.97;;;7.56;61.36
53858;BME280;39763;51.188;6.690;2022-11-20T00:21:21;100888.34;;;7.56;61.22
53858;BME280;39763;51.188;6.690;2022-11-20T00:22:53;100891.88;;;7.52;61.16
53858;BME280;39763;51.188;6.690;2022-11-20T00:24:25;100898.06;;;7.48;61.63
53858;BME280;39763;51.188;6.690;2022-11-20T00:25:56;100895.38;;;7.51;61.87
53858;BME280;39763;51.188;6.690;2022-11-20T00:27:32;100893.56;;;7.56;61.48
53858;BME280;39763;51.188;6.690;2022-11-20T00:29:04;100895.28;;;7.57;61.53
53858;BME280;39763;51.188;6.690;2022-11-20T00:30:37;100888.34;;;7.56;61.57
53858;BME280;39763;51.188;6.690;2022-11-20T00:32:08;100894.56;;;7.47;61.61
53858;BME280;39763;51.188;6.690;2022-11-20T00:33:40;100890.59;;;7.26;61.61
53858;BME280;39763;51.188;6.690;2022-11-20T00:35:12;100893.53;;;7.06;61.90
53858;BME280;39763;51.188;6.690;2022-11-20T00:36:44;100898.13;;;6.91;62.38
53858;BME280;39763;51.188;6.690;2022-11-20T00:38:16;100890.63;;;6.68;63.10
53858;BME280;39763;51.188;6.690;2022-11-20T00:39:47;100885.56;;;6.57;63.63
53858;BME280;39763;51.188;6.690;2022-11-20T00:41:19;100892.69;;;6.48;63.88
53858;BME280;39763;51.188;6.690;2022-11-20T00:42:51;100886.59;;;6.47;63.83
53858;BME280;39763;51.188;6.690;2022-11-20T00:44:23;100881.41;;;6.44;63.93
53858;BME280;39763;51.188;6.690;2022-11-20T00:45:59;100879.69;;;6.43;64.13
53858;BME280;39763;51.188;6.690;2022-11-20T00:47:31;100877.97;;;6.41;64.36
53858;BME280;39763;51.188;6.690;2022-11-20T00:49:02;100879.78;;;6.37;64.20
53858;BME280;39763;51.188;6.690;2022-11-20T00:50:34;100871.16;;;6.30;64.31
53858;BME280;39763;51.188;6.690;2022-11-20T00:52:06;100887.72;;;6.28;64.22
53858;BME280;39763;51.188;6.690;2022-11-20T00:53:37;100879.00;;;6.29;64.68
53858;BME280;39763;51.188;6.690;2022-11-20T00:55:09;100874.66;;;6.28;64.81
53858;BME280;39763;51.188;6.690;2022-11-20T00:56:41;100878.91;;;6.36;64.61
53858;BME280;39763;51.188;6.690;2022-11-20T00:58:13;100871.81;;;6.48;64.35
53858;BME280;39763;51.188;6.690;2022-11-20T00:59:45;100878.59;;;6.58;64.28
53858;BME280;39763;51.188;6.690;2022-11-20T01:01:19;100879.47;;;6.58;64.22
53858;BME280;39763;51.188;6.690;2022-11-20T01:02:51;100875.16;;;6.56;64.39
53858;BME280;39763;51.188;6.690;2022-11-20T01:04:23;100871.84;;;6.45;64.07
53858;BME280;39763;51.188;6.690;2022-11-20T01:05:59;100877.94;;;6.44;64.67
53858;BME280;39763;51.188;6.690;2022-11-20T01:07:32;100871.81;;;6.48;64.30
53858;BME280;39763;51.188;6.690;2022-11-20T01:09:09;100877.03;;;6.48;64.33
53858;BME280;39763;51.188;6.690;2022-11-20T01:10:41;100874.28;;;6.55;64.51
53858;BME280;39763;51.188;6.690;2022-11-20T01:12:12;100880.19;;;6.68;64.33
53858;BME280;39763;51.188;6.690;2022-11-20T01:13:44;100873.09;;;6.79;63.85
53858;BME280;39763;51.188;6.690;2022-11-20T01:15:16;100870.28;;;6.90;63.82
53858;BME280;39763;51.188;6.690;2022-11-20T01:16:50;100867.63;;;6.94;63.59
53858;BME280;39763;51.188;6.690;2022-11-20T01:18:22;100863.38;;;6.86;63.38
53858;BME280;39763;51.188;6.690;2022-11-20T01:19:54;100867.84;;;6.81;63.56
53858;BME280;39763;51.188;6.690;2022-11-20T01:21:28;100867.00;;;6.79;63.46
53858;BME280;39763;51.188;6.690;2022-11-20T01:23:00;100863.44;;;6.83;63.80
53858;BME280;39763;51.188;6.690;2022-11-20T01:24:31;100872.19;;;6.80;63.61
53858;BME280;39763;51.188;6.690;2022-11-20T01:26:05;100870.44;;;6.81;63.72
53858;BME280;39763;51.188;6.690;2022-11-20T01:27:37;100866.03;;;6.84;63.82
53858;BME280;39763;51.188;6.690;2022-11-20T01:30:43;100875.56;;;6.87;63.92
53858;BME280;39763;51.188;6.690;2022-11-20T01:32:16;100870.28;;;6.90;63.94
53858;BME280;39763;51.188;6.690;2022-11-20T01:33:50;100876.22;;;6.99;63.79
53858;BME280;39763;51.188;6.690;2022-11-20T01:35:22;100864.75;;;7.10;63.85
53858;BME280;39763;51.188;6.690;2022-11-20T01:36:54;100875.97;;;7.15;63.79
53858;BME280;39763;51.188;6.690;2022-11-20T01:38:25;100873.28;;;7.19;63.40
53858;BME280;39763;51.188;6.690;2022-11-20T01:39:57;100865.66;;;7.08;63.37
53858;BME280;39763;51.188;6.690;2022-11-20T01:41:30;100861.63;;;6.88;63.69
53858;BME280;39763;51.188;6.690;2022-11-20T01:43:21;100864.47;;;6.72;63.89
53858;BME280;39763;51.188;6.690;2022-11-20T01:44:55;100866.47;;;6.54;64.43
53858;BME280;39763;51.188;6.690;2022-11-20T01:46:28;100860.59;;;6.40;64.59
53858;BME280;39763;51.188;6.690;2022-11-20T01:48:01;100865.00;;;6.36;64.85
53858;BME280;39763;51.188;6.690;2022-11-20T01:49:36;100864.09;;;6.38;65.28
53858;BME280;39763;51.188;6.690;2022-11-20T01:51:13;100861.38;;;6.46;64.91
53858;BME280;39763;51.188;6.690;2022-11-20T01:52:49;100855.28;;;6.47;65.11
53858;BME280;39763;51.188;6.690;2022-11-20T01:54:27;100852.66;;;6.49;64.88
53858;BME280;39763;51.188;6.690;2022-11-20T01:56:03;100847.31;;;6.56;64.98
53858;BME280;39763;51.188;6.690;2022-11-20T01:57:37;100844.59;;;6.64;64.90
53858;BME280;39763;51.188;6.690;2022-11-20T01:59:11;100840.31;;;6.58;64.59
53858;BME280;39763;51.188;6.690;2022-11-20T02:00:44;100830.91;;;6.48;65.25
53858;BME280;39763;51.188;6.690;2022-11-20T02:02:16;100825.78;;;6.42;65.49
53858;BME280;39763;51.188;6.690;2022-11-20T02:03:49;100828.34;;;6.45;65.46
53858;BME280;39763;51.188;6.690;2022-11-20T02:05:25;100825.75;;;6.44;65.59
53858;BME280;39763;51.188;6.690;2022-11-20T02:07:00;100827.47;;;6.46;65.25
53858;BME280;39763;51.188;6.690;2022-11-20T02:08:32;100826.63;;;6.44;65.39
53858;BME280;39763;51.188;6.690;2022-11-20T02:10:04;100826.63;;;6.44;65.40
53858;BME280;39763;51.188;6.690;2022-11-20T02:11:36;100831.00;;;6.42;65.83
53858;BME280;39763;51.188;6.690;2022-11-20T02:13:08;100827.63;;;6.37;65.59
53858;BME280;39763;51.188;6.690;2022-11-20T02:14:58;100823.38;;;6.27;65.82
53858;BME280;39763;51.188;6.690;2022-11-20T02:16:31;100820.91;;;6.19;66.11
53858;BME280;39763;51.188;6.690;2022-11-20T02:18:04;100820.97;;;6.15;66.11
53858;BME280;39763;51.188;6.690;2022-11-20T02:19:38;100827.06;;;6.14;66.39
53858;BME280;39763;51.188;6.690;2022-11-20T02:21:18;100823.59;;;6.13;66.23
53858;BME280;39763;51.188;6.690;2022-11-20T02:22:56;100825.31;;;6.14;66.18
53858;BME280;39763;51.188;6.690;2022-11-20T02:24:30;100830.53;;;6.14;66.06
53858;BME280;39763;51.188;6.690;2022-11-20T02:26:04;100826.22;;;6.12;66.52
53858;BME280;39763;51.188;6.690;2022-11-20T02:27:37;100828.81;;;6.12;66.22
53858;BME280;39763;51.188;6.690;2022-11-20T02:29:09;100833.19;;;6.10;66.20
53858;BME280;39763;51.188;6.690;2022-11-20T02:30:40;100830.72;;;5.99;66.24
53858;BME280;39763;51.188;6.690;2022-11-20T02:32:18;100833.44;;;5.91;66.80
53858;BME280;39763;51.188;6.690;2022-11-20T02:33:54;100836.03;;;5.93;66.74
53858;BME280;39763;51.188;6.690;2022-11-20T02:35:41;100823.91;;;5.89;66.69
53858;BME280;39763;51.188;6.690;2022-11-20T02:37:14;100820.44;;;5.84;66.97
53858;BME280;39763;51.188;6.690;2022-11-20T02:38:46;100823.97;;;5.81;66.90
53858;BME280;39763;51.188;6.690;2022-11-20T02:40:20;100823.09;;;5.81;66.95
53858;BME280;39763;51.188;6.690;2022-11-20T02:41:53;100828.38;;;5.76;67.12
53858;BME280;39763;51.188;6.690;2022-11-20T02:43:25;100817.28;;;5.60;67.29
53858;BME280;39763;51.188;6.690;2022-11-20T02:44:57;100824.22;;;5.60;67.65
53858;BME280;39763;51.188;6.690;2022-11-20T02:46:28;100819.00;;;5.61;67.59
53858;BME280;39763;51.188;6.690;2022-11-20T02:48:00;100826.84;;;5.60;67.52
53858;BME280;39763;51.188;6.690;2022-11-20T02:49:32;100834.56;;;5.66;67.52
53858;BME280;39763;51.188;6.690;2022-11-20T02:51:04;100823.25;;;5.68;67.52
53858;BME280;39763;51.188;6.690;2022-11-20T02:52:36;100822.31;;;5.74;67.19
53858;BME280;39763;51.188;6.690;2022-11-20T02:54:07;100829.19;;;5.80;67.61
53858;BME280;39763;51.188;6.690;2022-11-20T02:55:40;100836.94;;;5.86;66.97
53858;BME280;39763;51.188;6.690;2022-11-20T02:57:12;100832.56;;;5.88;67.27
53858;BME280;39763;51.188;6.690;2022-11-20T02:58:44;100826.50;;;5.90;66.68
53858;BME280;39763;51.188;6.690;2022-11-20T03:00:16;100833.44;;;5.91;66.62
53858;BME280;39763;51.188;6.690;2022-11-20T03:01:47;100835.16;;;5.92;66.75
53858;BME280;39763;51.188;6.690;2022-11-20T03:03:19;100830.84;;;5.91;66.70
53858;BME280;39763;51.188;6.690;2022-11-20T03:04:51;100840.41;;;5.91;66.40
53858;BME280;39763;51.188;6.690;2022-11-20T03:06:22;100844.75;;;5.89;66.58
53858;BME280;39763;51.188;6.690;2022-11-20T03:07:54;100829.97;;;5.86;66.71
53858;BME280;39763;51.188;6.690;2022-11-20T03:09:26;100830.88;;;5.85;66.63
53858;BME280;39763;51.188;6.690;2022-11-20T03:11:03;100828.25;;;5.85;66.74
53858;BME280;39763;51.188;6.690;2022-11-20T03:12:35;100823.19;;;5.73;66.78
53858;BME280;39763;51.188;6.690;2022-11-20T03:14:07;100830.19;;;5.68;66.68
53858;BME280;39763;51.188;6.690;2022-11-20T03:15:39;100825.94;;;5.61;67.12
53858;BME280;39763;51.188;6.690;2022-11-20T03:17:10;100832.00;;;5.63;67.13
53858;BME280;39763;51.188;6.690;2022-11-20T03:18:42;100813.72;;;5.64;67.15
53858;BME280;39763;51.188;6.690;2022-11-20T03:20:14;100828.44;;;5.70;67.31
53858;BME280;39763;51.188;6.690;2022-11-20T03:21:46;100830.13;;;5.74;67.03
53858;BME280;39763;51.188;6.690;2022-11-20T03:23:18;100833.59;;;5.75;66.98
53858;BME280;39763;51.188;6.690;2022-11-20T03:24:50;100824.06;;;5.74;66.81
53858;BME280;39763;51.188;6.690;2022-11-20T03:26:25;100823.16;;;5.76;66.67
53858;BME280;39763;51.188;6.690;2022-11-20T03:27:57;100826.63;;;5.77;66.53
53858;BME280;39763;51.188;6.690;2022-11-20T03:29:28;100827.50;;;5.76;66.72
53858;BME280;39763;51.188;6.690;2022-11-20T03:31:05;100825.81;;;5.73;66.75
53858;BME280;39763;51.188;6.690;2022-11-20T03:32:37;100825.84;;;5.68;66.93
53858;BME280;39763;51.188;6.690;2022-11-20T03:34:10;100811.97;;;5.66;67.17
53858;BME280;39763;51.188;6.690;2022-11-20T03:35:42;100822.41;;;5.65;67.23
53858;BME280;39763;51.188;6.690;2022-11-20T03:37:13;100813.72;;;5.64;66.79
53858;BME280;39763;51.188;6.690;2022-11-20T03:38:45;100812.00;;;5.65;66.90
53858;BME280;39763;51.188;6.690;2022-11-20T03:40:17;100813.84;;;5.57;67.02
53858;BME280;39763;51.188;6.690;2022-11-20T03:41:50;100814.81;;;5.48;67.18
53858;BME280;39763;51.188;6.690;2022-11-20T03:43:22;100806.31;;;5.32;68.04
53858;BME280;39763;51.188;6.690;2022-11-20T03:44:53;100813.34;;;5.21;68.58
53858;BME280;39763;51.188;6.690;2022-11-20T03:46:26;100816.91;;;5.13;68.49
53858;BME280;39763;51.188;6.690;2022-11-20T03:47:58;100806.66;;;4.94;68.78
53858;BME280;39763;51.188;6.690;2022-11-20T03:49:29;100820.63;;;4.86;69.36
53858;BME280;39763;51.188;6.690;2022-11-20T03:51:08;100824.22;;;4.71;69.93
53858;BME280;39763;51.188;6.690;2022-11-20T03:52:41;100825.22;;;4.52;70.28
53858;BME280;39763;51.188;6.690;2022-11-20T03:54:13;100828.78;;;4.34;71.22
53858;BME280;39763;51.188;6.690;2022-11-20T03:55:45;100830.56;;;4.28;71.51
53858;BME280;39763;51.188;6.690;2022-11-20T03:57:18;100835.81;;;4.18;72.08
53858;BME280;39763;51.188;6.690;2022-11-20T03:58:50;100831.53;;;4.10;71.92
53858;BME280;39763;51.188;6.690;2022-11-20T04:00:21;100821.16;;;4.05;72.59
53858;BME280;39763;51.188;6.690;2022-11-20T04:01:53;100817.75;;;3.99;72.84
53858;BME280;39763;51.188;6.690;2022-11-20T04:03:25;100823.81;;;3.98;72.82
53858;BME280;39763;51.188;6.690;2022-11-20T04:04:57;100819.50;;;3.87;73.04
53858;BME280;39763;51.188;6.690;2022-11-20T04:06:30;100828.22;;;3.79;73.47
53858;BME280;39763;51.188;6.690;2022-11-20T04:08:05;100818.69;;;3.72;73.35
53858;BME280;39763;51.188;6.690;2022-11-20T04:09:36;100820.47;;;3.59;74.12
53858;BME280;39763;51.188;6.690;2022-11-20T04:11:09;100821.34;;;3.58;74.13
53858;BME280;39763;51.188;6.690;2022-11-20T04:12:43;100814.41;;;3.57;74.28
53858;BME280;39763;51.188;6.690;2022-11-20T04:14:15;100812.69;;;3.59;74.07
53858;BME280;39763;51.188;6.690;2022-11-20T04:15:47;100820.50;;;3.56;74.13
53858;BME280;39763;51.188;6.690;2022-11-20T04:17:19;100821.38;;;3.49;74.54
53858;BME280;39763;51.188;6.690;2022-11-20T04:18:51;100813.56;;;3.57;74.18
53858;BME280;39763;51.188;6.690;2022-11-20T04:20:24;100820.47;;;3.61;74.14
53858;BME280;39763;51.188;6.690;2022-11-20T04:21:55;100820.47;;;3.64;73.85
53858;BME280;39763;51.188;6.690;2022-11-20T04:23:27;100821.31;;;3.70;73.77
53858;BME280;39763;51.188;6.690;2022-11-20T04:24:59;100821.28;;;3.76;73.53
53858;BME280;39763;51.188;6.690;2022-11-20T04:26:31;100823.00;;;3.79;73.28
53858;BME280;39763;51.188;6.690;2022-11-20T04:28:04;100816.06;;;3.85;73.10
53858;BME280;39763;51.188;6.690;2022-11-20T04:29:36;100819.50;;;3.89;73.01
53858;BME280;39763;51.188;6.690;2022-11-20T04:31:09;100814.31;;;3.87;72.97
53858;BME280;39763;51.188;6.690;2022-11-20T04:32:41;100809.94;;;3.94;72.91
53858;BME280;39763;51.188;6.690;2022-11-20T04:34:12;100813.38;;;4.01;72.55
53858;BME280;39763;51.188;6.690;2022-11-20T04:35:46;100822.94;;;3.96;72.59
53858;BME280;39763;51.188;6.690;2022-11-20T04:37:18;100819.50;;;3.92;72.31
53858;BME280;39763;51.188;6.690;2022-11-20T04:38:50;100816.88;;;3.90;72.68
53858;BME280;39763;51.188;6.690;2022-11-20T04:40:28;100820.41;;;3.83;72.83
53858;BME280;39763;51.188;6.690;2022-11-20T04:42:00;100816.94;;;3.81;72.64
53858;BME280;39763;51.188;6.690;2022-11-20T04:43:53;100819.53;;;3.84;73.08
53858;BME280;39763;51.188;6.690;2022-11-20T04:45:30;100815.16;;;3.88;72.77
53858;BME280;39763;51.188;6.690;2022-11-20T04:47:01;100820.34;;;3.94;72.67
53858;BME280;39763;51.188;6.690;2022-11-20T04:48:34;100815.16;;;3.91;72.57
53858;BME280;39763;51.188;6.690;2022-11-20T04:50:07;100817.75;;;3.89;72.83
53858;BME280;39763;51.188;6.690;2022-11-20T04:51:39;100817.75;;;3.86;72.87
53858;BME280;39763;51.188;6.690;2022-11-20T04:53:11;100818.63;;;3.87;72.99
53858;BME280;39763;51.188;6.690;2022-11-20T04:54:42;100814.28;;;3.97;73.03
53858;BME280;39763;51.188;6.690;2022-11-20T04:56:14;100822.84;;;4.15;72.62
53858;BME280;39763;51.188;6.690;2022-11-20T04:57:49;100818.53;;;4.10;72.07
53858;BME280;39763;51.188;6.690;2022-11-20T04:59:23;100815.06;;;4.14;71.86
53858;BME280;39763;51.188;6.690;2022-11-20T05:01:01;100818.47;;;4.19;71.88
53858;BME280;39763;51.188;6.690;2022-11-20T05:02:33;100818.53;;;4.14;71.79
53858;BME280;39763;51.188;6.690;2022-11-20T05:04:05;100814.19;;;4.15;71.69
53858;BME280;39763;51.188;6.690;2022-11-20T05:05:37;100819.38;;;4.15;71.84
53858;BME280;39763;51.188;6.690;2022-11-20T05:07:08;100815.94;;;4.13;71.71
53858;BME280;39763;51.188;6.690;2022-11-20T05:08:40;100811.53;;;4.18;71.64
53858;BME280;39763;51.188;6.690;2022-11-20T05:10:12;100818.47;;;4.23;71.50
53858;BME280;39763;51.188;6.690;2022-11-20T05:11:44;100814.88;;;4.40;71.78
53858;BME280;39763;51.188;6.690;2022-11-20T05:13:21;100817.41;;;4.52;70.70
53858;BME280;39763;51.188;6.690;2022-11-20T05:14:54;100813.94;;;4.51;70.76
53858;BME280;39763;51.188;6.690;2022-11-20T05:16:26;100810.50;;;4.48;70.28
53858;BME280;39763;51.188;6.690;2022-11-20T05:17:58;100808.69;;;4.59;70.33
53858;BME280;39763;51.188;6.690;2022-11-20T05:19:30;100810.38;;;4.63;69.77
53858;BME280;39763;51.188;6.690;2022-11-20T05:21:02;100813.91;;;4.57;70.02
53858;BME280;39763;51.188;6.690;2022-11-20T05:22:33;100807.78;;;4.60;70.14
53858;BME280;39763;51.188;6.690;2022-11-20T05:24:05;100811.25;;;4.62;69.84
53858;BME280;39763;51.188;6.690;2022-11-20T05:25:38;100811.22;;;4.70;69.88
53858;BME280;39763;51.188;6.690;2022-11-20T05:27:09;100805.97;;;4.74;69.53
53858;BME280;39763;51.188;6.690;2022-11-20T05:28:41;100806.72;;;4.87;69.41
53858;BME280;39763;51.188;6.690;2022-11-20T05:30:15;100804.13;;;4.87;69.07
53858;BME280;39763;51.188;6.690;2022-11-20T05:31:46;100809.34;;;4.87;69.26
53858;BME280;39763;51.188;6.690;2022-11-20T05:33:18;100804.97;;;4.89;69.11
53858;BME280;39763;51.188;6.690;2022-11-20T05:34:50;100799.72;;;4.95;69.03
53858;BME280;39763;51.188;6.690;2022-11-20T05:36:22;100813.56;;;4.97;69.11
53858;BME280;39763;51.188;6.690;2022-11-20T05:37:53;100808.31;;;5.03;69.04
53858;BME280;39763;51.188;6.690;2022-11-20T05:39:25;100803.03;;;5.11;68.77
53858;BME280;39763;51.188;6.690;2022-11-20T05:41:03;100799.44;;;5.22;69.24
53858;BME280;39763;51.188;6.690;2022-11-20T05:42:35;100795.88;;;5.32;68.52
53858;BME280;39763;51.188;6.690;2022-11-20T05:44:07;100809.69;;;5.38;68.13
53858;BME280;39763;51.188;6.690;2022-11-20T05:45:40;100795.75;;;5.43;68.03
53858;BME280;39763;51.188;6.690;2022-11-20T05:47:11;100800.00;;;5.50;68.26
53858;BME280;39763;51.188;6.690;2022-11-20T05:48:44;100800.84;;;5.54;68.21
53858;BME280;39763;51.188;6.690;2022-11-20T05:50:16;100792.13;;;5.56;67.96
53858;BME280;39763;51.188;6.690;2022-11-20T05:51:48;100804.22;;;5.62;67.89
53858;BME280;39763;51.188;6.690;2022-11-20T05:53:19;100801.56;;;5.66;67.39
53858;BME280;39763;51.188;6.690;2022-11-20T05:54:51;100808.56;;;5.63;67.74
53858;BME280;39763;51.188;6.690;2022-11-20T05:56:23;100799.88;;;5.62;67.58
53858;BME280;39763;51.188;6.690;2022-11-20T05:57:54;100798.06;;;5.67;68.22
53858;BME280;39763;51.188;6.690;2022-11-20T05:59:26;100798.00;;;5.74;68.14
53858;BME280;39763;51.188;6.690;2022-11-20T06:01:05;100798.03;;;5.72;67.48
53858;BME280;39763;51.188;6.690;2022-11-20T06:02:37;100791.91;;;5.75;67.21
53858;BME280;39763;51.188;6.690;2022-11-20T06:04:08;100797.13;;;5.73;67.14
53858;BME280;39763;51.188;6.690;2022-11-20T06:05:40;100797.97;;;5.78;67.07
53858;BME280;39763;51.188;6.690;2022-11-20T06:07:12;100797.00;;;5.82;67.05
53858;BME280;39763;51.188;6.690;2022-11-20T06:08:44;100801.34;;;5.85;67.00
53858;BME280;39763;51.188;6.690;2022-11-20T06:10:16;100794.34;;;5.87;67.06
53858;BME280;39763;51.188;6.690;2022-11-20T06:11:47;100801.31;;;5.91;67.28
53858;BME280;39763;51.188;6.690;2022-11-20T06:13:19;100791.66;;;5.94;67.09
53858;BME280;39763;51.188;6.690;2022-11-20T06:14:50;100790.75;;;6.00;67.07
53858;BME280;39763;51.188;6.690;2022-11-20T06:16:23;100786.38;;;6.00;66.89
53858;BME280;39763;51.188;6.690;2022-11-20T06:17:55;100786.47;;;5.94;67.11
53858;BME280;39763;51.188;6.690;2022-11-20T06:19:27;100788.28;;;5.89;67.50
53858;BME280;39763;51.188;6.690;2022-11-20T06:21:00;100784.84;;;5.83;67.42
53858;BME280;39763;51.188;6.690;2022-11-20T06:22:32;100792.00;;;5.67;67.40
53858;BME280;39763;51.188;6.690;2022-11-20T06:24:04;100781.59;;;5.64;68.20
53858;BME280;39763;51.188;6.690;2022-11-20T06:25:37;100790.31;;;5.63;68.37
53858;BME280;39763;51.188;6.690;2022-11-20T06:27:09;100790.25;;;5.66;68.25
53858;BME280;39763;51.188;6.690;2022-11-20T06:28:41;100795.47;;;5.66;68.20
53858;BME280;39763;51.188;6.690;2022-11-20T06:30:13;100795.53;;;5.63;68.53
53858;BME280;39763;51.188;6.690;2022-11-20T06:31:46;100790.38;;;5.58;68.05
53858;BME280;39763;51.188;6.690;2022-11-20T06:33:17;100792.16;;;5.52;68.42
53858;BME280;39763;51.188;6.690;2022-11-20T06:34:49;100796.56;;;5.48;68.88
53858;BME280;39763;51.188;6.690;2022-11-20T06:36:22;100802.66;;;5.47;68.81
53858;BME280;39763;51.188;6.690;2022-11-20T06:37:55;100795.66;;;5.51;68.87
53858;BME280;39763;51.188;6.690;2022-11-20T06:39:27;100799.97;;;5.53;68.46
53858;BME280;39763;51.188;6.690;2022-11-20T06:40:59;100808.63;;;5.55;68.50
53858;BME280;39763;51.188;6.690;2022-11-20T06:42:30;100802.56;;;5.55;68.14
53858;BME280;39763;51.188;6.690;2022-11-20T06:44:03;100803.44;;;5.55;68.18
53858;BME280;39763;51.188;6.690;2022-11-20T06:45:35;100809.50;;;5.56;68.08
53858;BME280;39763;51.188;6.690;2022-11-20T06:47:08;100819.91;;;5.59;68.61
53858;BME280;39763;51.188;6.690;2022-11-20T06:48:40;100812.13;;;5.53;68.06
53858;BME280;39763;51.188;6.690;2022-11-20T06:50:12;100814.00;;;5.42;68.86
53858;BME280;39763;51.188;6.690;2022-11-20T06:51:43;100820.13;;;5.36;68.71
53858;BME280;39763;51.188;6.690;2022-11-20T06:53:15;100813.25;;;5.30;68.85
53858;BME280;39763;51.188;6.690;2022-11-20T06:54:47;100825.31;;;5.38;69.10
53858;BME280;39763;51.188;6.690;2022-11-20T06:56:19;100827.00;;;5.45;68.98
53858;BME280;39763;51.188;6.690;2022-11-20T06:57:50;100824.31;;;5.49;68.65
53858;BME280;39763;51.188;6.690;2022-11-20T06:59:27;100822.56;;;5.53;68.91
53858;BME280;39763;51.188;6.690;2022-11-20T07:00:59;100818.16;;;5.58;68.66
53858;BME280;39763;51.188;6.690;2022-11-20T07:02:32;100824.28;;;5.55;68.53
53858;BME280;39763;51.188;6.690;2022-11-20T07:04:04;100817.31;;;5.57;68.40
53858;BME280;39763;51.188;6.690;2022-11-20T07:05:36;100829.44;;;5.60;67.73
53858;BME280;39763;51.188;6.690;2022-11-20T07:07:08;100830.47;;;5.44;68.05
53858;BME280;39763;51.188;6.690;2022-11-20T07:08:40;100833.44;;;5.06;68.76
53858;BME280;39763;51.188;6.690;2022-11-20T07:10:12;100828.44;;;4.81;69.31
53858;BME280;39763;51.188;6.690;2022-11-20T07:11:43;100831.06;;;4.80;70.33
53858;BME280;39763;51.188;6.690;2022-11-20T07:13:15;100840.72;;;4.66;70.51
53858;BME280;39763;51.188;6.690;2022-11-20T07:14:47;100831.16;;;4.68;70.45
53858;BME280;39763;51.188;6.690;2022-11-20T07:16:18;100838.09;;;4.67;70.69
53858;BME280;39763;51.188;6.690;2022-11-20T07:17:51;100837.34;;;4.51;70.86
53858;BME280;39763;51.188;6.690;2022-11-20T07:19:23;100838.28;;;4.41;71.44
53858;BME280;39763;51.188;6.690;2022-11-20T07:20:55;100842.56;;;4.47;71.37
53858;BME280;39763;51.188;6.690;2022-11-20T07:22:27;100839.88;;;4.60;71.55
53858;BME280;39763;51.188;6.690;2022-11-20T07:23:58;100837.22;;;4.68;71.01
53858;BME280;39763;51.188;6.690;2022-11-20T07:25:30;100837.25;;;4.64;71.03
53858;BME280;39763;51.188;6.690;2022-11-20T07:27:02;100844.16;;;4.71;70.93
53858;BME280;39763;51.188;6.690;2022-11-20T07:28:34;100838.84;;;4.84;70.79
53858;BME280;39763;51.188;6.690;2022-11-20T07:30:07;100847.44;;;4.94;70.23
53858;BME280;39763;51.188;6.690;2022-11-20T07:31:38;100840.38;;;5.08;70.07
53858;BME280;39763;51.188;6.690;2022-11-20T07:33:11;100841.22;;;5.09;69.38
53858;BME280;39763;51.188;6.690;2022-11-20T07:34:43;100835.22;;;5.04;69.28
53858;BME280;39763;51.188;6.690;2022-11-20T07:36:15;100829.06;;;5.09;69.73
53858;BME280;39763;51.188;6.690;2022-11-20T07:37:47;100835.97;;;5.15;69.59
53858;BME280;39763;51.188;6.690;2022-11-20T07:39:19;100838.53;;;5.19;69.06
53858;BME280;39763;51.188;6.690;2022-11-20T07:40:53;100824.56;;;5.29;69.06
53858;BME280;39763;51.188;6.690;2022-11-20T07:42:28;100824.41;;;5.42;69.53
53858;BME280;39763;51.188;6.690;2022-11-20T07:44:00;100823.44;;;5.50;68.57
53858;BME280;39763;51.188;6.690;2022-11-20T07:45:32;100832.09;;;5.54;68.81
53858;BME280;39763;51.188;6.690;2022-11-20T07:47:04;100829.44;;;5.60;68.74
53858;BME280;39763;51.188;6.690;2022-11-20T07:48:37;100826.81;;;5.61;68.05
53858;BME280;39763;51.188;6.690;2022-11-20T07:50:09;100825.94;;;5.61;68.06
53858;BME280;39763;51.188;6.690;2022-11-20T07:51:41;100828.56;;;5.61;68.37
53858;BME280;39763;51.188;6.690;2022-11-20T07:53:13;100822.47;;;5.62;68.29
53858;BME280;39763;51.188;6.690;2022-11-20T07:54:45;100818.03;;;5.67;68.43
53858;BME280;39763;51.188;6.690;2022-11-20T07:56:17;100817.97;;;5.75;67.86
53858;BME280;39763;51.188;6.690;2022-11-20T07:57:54;100816.19;;;5.78;67.93
53858;BME280;39763;51.188;6.690;2022-11-20T07:59:25;100811.78;;;5.82;67.35
53858;BME280;39763;51.188;6.690;2022-11-20T08:00:57;100813.50;;;5.84;67.76
53858;BME280;39763;51.188;6.690;2022-11-20T08:02:29;100810.91;;;5.83;67.58
53858;BME280;39763;51.188;6.690;2022-11-20T08:04:02;100805.66;;;5.87;67.37
53858;BME280;39763;51.188;6.690;2022-11-20T08:05:34;100805.63;;;5.93;68.01
53858;BME280;39763;51.188;6.690;2022-11-20T08:07:06;100807.25;;;6.00;67.33
53858;BME280;39763;51.188;6.690;2022-11-20T08:08:37;100811.53;;;6.06;67.17
53858;BME280;39763;51.188;6.690;2022-11-20T08:10:15;100803.63;;;6.09;67.43
53858;BME280;39763;51.188;6.690;2022-11-20T08:11:49;100804.50;;;6.10;66.99
53858;BME280;39763;51.188;6.690;2022-11-20T08:13:39;100809.66;;;6.14;67.39